createdAt,value
2019-04-26T00:00:00.123Z,0.00
2019-04-26T00:01:00.113Z,0.00
2019-04-26T00:02:00.126Z,0.00
2019-04-26T00:03:00.140Z,0.00
2019-04-26T00:04:00.139Z,0.00
2019-04-26T00:05:00.257Z,0.00
2019-04-26T00:06:00.185Z,0.00
2019-04-26T00:07:00.176Z,0.00
2019-04-26T00:08:00.215Z,0.00
2019-04-26T00:09:00.185Z,0.00
2019-04-26T00:10:00.190Z,0.00
2019-04-26T00:11:00.205Z,0.00
2019-04-26T00:12:00.218Z,0.00
2019-04-26T00:13:00.220Z,0.00
2019-04-26T00:14:00.223Z,0.00
2019-04-26T00:15:00.227Z,0.00
2019-04-26T00:16:00.236Z,0.00
2019-04-26T00:17:00.250Z,0.00
2019-04-26T00:18:00.263Z,0.00
2019-04-26T00:19:00.263Z,0.00
2019-04-26T00:20:00.270Z,0.00
2019-04-26T00:21:00.287Z,0.00
2019-04-26T00:22:00.293Z,0.00
2019-04-26T00:23:00.296Z,0.00
2019-04-26T00:24:00.305Z,0.00
2019-04-26T00:25:00.312Z,0.00
2019-04-26T00:26:00.328Z,0.00
2019-04-26T00:28:00.428Z,0.00
2019-04-26T00:29:00.348Z,0.00
2019-04-26T00:30:00.352Z,0.00
2019-04-26T00:31:00.356Z,0.00
2019-04-26T00:32:00.377Z,0.00
2019-04-26T00:33:00.385Z,0.00
2019-04-26T00:34:00.385Z,0.00
2019-04-26T00:35:00.424Z,0.00
2019-04-26T00:36:00.399Z,0.00
2019-04-26T00:37:00.410Z,0.00
2019-04-26T00:38:00.421Z,0.00
2019-04-26T00:39:00.441Z,0.00
2019-04-26T00:40:00.441Z,0.00
2019-04-26T00:41:00.465Z,0.00
2019-04-26T00:42:00.450Z,0.00
2019-04-26T00:43:00.505Z,0.00
2019-04-26T00:44:00.470Z,0.00
2019-04-26T00:45:00.482Z,0.00
2019-04-26T00:46:00.491Z,0.00
2019-04-26T00:47:00.495Z,0.00
2019-04-26T00:48:00.507Z,0.00
2019-04-26T00:49:00.512Z,0.00
2019-04-26T00:50:00.522Z,0.00
2019-04-26T00:51:00.532Z,0.00
2019-04-26T00:52:00.550Z,0.00
2019-04-26T00:53:00.551Z,0.00
2019-04-26T00:54:00.556Z,0.00
2019-04-26T00:55:00.580Z,0.00
2019-04-26T00:56:00.568Z,0.00
2019-04-26T00:57:00.579Z,0.00
2019-04-26T00:58:00.591Z,0.00
2019-04-26T00:59:00.604Z,0.00
2019-04-26T01:00:00.607Z,0.00
2019-04-26T01:01:00.615Z,0.00
2019-04-26T01:02:00.631Z,0.00
2019-04-26T01:03:00.639Z,0.00
2019-04-26T01:04:00.639Z,0.00
2019-04-26T01:05:00.652Z,0.00
2019-04-26T01:06:00.652Z,0.00
2019-04-26T01:07:00.661Z,0.00
2019-04-26T01:08:00.675Z,0.00
2019-04-26T01:09:00.678Z,0.00
2019-04-26T01:10:00.757Z,0.00
2019-04-26T01:11:00.699Z,0.00
2019-04-26T01:12:00.706Z,0.00
2019-04-26T01:13:00.721Z,0.00
2019-04-26T01:14:00.717Z,0.00
2019-04-26T01:15:00.735Z,0.00
2019-04-26T01:16:00.748Z,0.00
2019-04-26T01:17:00.750Z,0.00
2019-04-26T01:18:00.761Z,0.00
2019-04-26T01:19:00.757Z,0.00
2019-04-26T01:20:00.771Z,0.00
2019-04-26T01:21:00.777Z,0.00
2019-04-26T01:22:00.782Z,0.00
2019-04-26T01:23:00.813Z,0.00
2019-04-26T01:24:00.798Z,0.00
2019-04-26T01:25:00.807Z,0.00
2019-04-26T01:26:00.814Z,0.00
2019-04-26T01:27:00.824Z,0.00
2019-04-26T01:29:00.845Z,0.00
2019-04-26T01:30:00.867Z,0.00
2019-04-26T01:31:00.858Z,0.00
2019-04-26T01:32:00.868Z,0.00
2019-04-26T01:33:00.876Z,0.00
2019-04-26T01:34:00.883Z,0.00
2019-04-26T01:35:00.890Z,0.00
2019-04-26T01:36:12.395Z,0.00
2019-04-26T01:37:00.912Z,0.00
2019-04-26T01:38:00.903Z,0.00
2019-04-26T01:39:00.925Z,0.00
2019-04-26T01:40:00.921Z,0.00
2019-04-26T01:41:00.933Z,0.00
2019-04-26T01:42:00.945Z,0.00
2019-04-26T01:43:01.011Z,0.00
2019-04-26T01:44:00.961Z,0.00
2019-04-26T01:45:00.969Z,0.00
2019-04-26T01:46:00.979Z,0.00
2019-04-26T01:47:00.976Z,0.00
2019-04-26T01:48:00.981Z,0.00
2019-04-26T01:49:00.997Z,0.00
2019-04-26T01:50:00.995Z,0.00
2019-04-26T01:51:01.014Z,0.00
2019-04-26T01:52:01.015Z,0.00
2019-04-26T01:53:01.022Z,0.00
2019-04-26T01:54:01.031Z,0.00
2019-04-26T01:55:01.137Z,0.00
2019-04-26T01:56:01.050Z,0.00
2019-04-26T01:57:01.053Z,0.00
2019-04-26T01:58:01.062Z,0.00
2019-04-26T01:59:01.077Z,0.00
2019-04-26T02:00:01.077Z,0.00
2019-04-26T02:01:01.083Z,0.00
2019-04-26T02:02:01.089Z,0.00
2019-04-26T02:03:01.116Z,0.00
2019-04-26T02:04:01.106Z,0.00
2019-04-26T02:05:01.126Z,0.00
2019-04-26T02:06:01.130Z,0.00
2019-04-26T02:07:01.127Z,0.00
2019-04-26T02:08:01.234Z,0.00
2019-04-26T02:09:01.141Z,0.00
2019-04-26T02:10:01.155Z,0.00
2019-04-26T02:11:01.160Z,0.00
2019-04-26T02:12:01.165Z,0.00
2019-04-26T02:13:01.172Z,0.00
2019-04-26T02:14:01.189Z,0.00
2019-04-26T02:15:01.190Z,0.00
2019-04-26T02:16:01.202Z,0.00
2019-04-26T02:17:01.205Z,0.00
2019-04-26T02:18:01.303Z,0.00
2019-04-26T02:19:01.213Z,0.00
2019-04-26T02:20:01.230Z,0.00
2019-04-26T02:21:01.233Z,0.00
2019-04-26T02:22:01.241Z,0.00
2019-04-26T02:23:01.252Z,0.00
2019-04-26T02:24:01.249Z,0.00
2019-04-26T02:25:01.267Z,0.00
2019-04-26T02:26:01.275Z,0.00
2019-04-26T02:27:01.280Z,0.00
2019-04-26T02:28:01.290Z,0.00
2019-04-26T02:29:01.295Z,0.00
2019-04-26T02:30:01.424Z,0.00
2019-04-26T02:31:01.349Z,0.00
2019-04-26T02:32:01.321Z,0.00
2019-04-26T02:33:01.329Z,0.00
2019-04-26T02:34:01.333Z,0.00
2019-04-26T02:35:01.343Z,0.00
2019-04-26T02:36:01.352Z,0.00
2019-04-26T02:37:01.351Z,0.00
2019-04-26T02:38:01.507Z,0.00
2019-04-26T02:39:01.374Z,0.00
2019-04-26T02:40:01.378Z,0.00
2019-04-26T02:41:01.385Z,0.00
2019-04-26T02:42:01.395Z,0.00
2019-04-26T02:43:01.403Z,0.00
2019-04-26T02:44:01.399Z,0.00
2019-04-26T02:45:01.417Z,0.00
2019-04-26T02:46:01.427Z,0.00
2019-04-26T02:47:01.430Z,0.00
2019-04-26T02:48:01.440Z,0.00
2019-04-26T02:49:01.448Z,0.00
2019-04-26T02:50:01.457Z,0.00
2019-04-26T02:51:01.531Z,0.00
2019-04-26T02:52:01.468Z,0.00
2019-04-26T02:53:01.473Z,0.00
2019-04-26T02:54:01.487Z,0.00
2019-04-26T02:55:01.495Z,0.00
2019-04-26T02:56:01.498Z,0.00
2019-04-26T02:57:01.501Z,0.00
2019-04-26T02:58:01.514Z,0.00
2019-04-26T02:59:01.526Z,0.00
2019-04-26T03:00:01.539Z,0.00
2019-04-26T03:01:01.534Z,0.00
2019-04-26T03:02:01.544Z,0.00
2019-04-26T03:03:01.633Z,0.00
2019-04-26T03:04:01.568Z,0.00
2019-04-26T03:05:01.580Z,0.00
2019-04-26T03:06:01.603Z,0.00
2019-04-26T03:07:03.536Z,0.00
2019-04-26T03:08:01.596Z,0.00
2019-04-26T03:09:01.602Z,0.00
2019-04-26T03:10:01.631Z,0.00
2019-04-26T03:11:01.612Z,0.00
2019-04-26T03:12:01.622Z,0.00
2019-04-26T03:13:01.739Z,0.00
2019-04-26T03:14:01.646Z,0.00
2019-04-26T03:15:13.515Z,0.00
2019-04-26T03:16:01.654Z,0.00
2019-04-26T03:17:01.661Z,0.00
2019-04-26T03:18:01.670Z,0.00
2019-04-26T03:19:01.680Z,0.00
2019-04-26T03:20:01.686Z,0.00
2019-04-26T03:21:01.701Z,0.00
2019-04-26T03:22:01.702Z,0.00
2019-04-26T03:23:01.742Z,0.00
2019-04-26T03:24:01.712Z,0.00
2019-04-26T03:25:01.729Z,0.00
2019-04-26T03:26:01.732Z,0.00
2019-04-26T03:27:01.739Z,0.00
2019-04-26T03:28:01.760Z,0.00
2019-04-26T03:29:01.754Z,0.00
2019-04-26T03:30:18.950Z,0.00
2019-04-26T03:31:01.798Z,0.00
2019-04-26T03:32:01.774Z,0.00
2019-04-26T03:33:02.281Z,0.00
2019-04-26T03:34:01.867Z,0.00
2019-04-26T03:35:01.819Z,4.00
2019-04-26T03:36:01.851Z,0.00
2019-04-26T03:37:19.046Z,0.00
2019-04-26T03:38:01.816Z,0.00
2019-04-26T03:39:01.820Z,0.00
2019-04-26T03:40:01.844Z,0.00
2019-04-26T03:41:01.837Z,4.00
2019-04-26T03:42:01.851Z,0.00
2019-04-26T03:43:01.847Z,0.00
2019-04-26T03:44:01.868Z,0.00
2019-04-26T03:45:01.874Z,4.00
2019-04-26T03:46:01.937Z,4.00
2019-04-26T03:47:01.892Z,0.00
2019-04-26T03:48:01.916Z,4.00
2019-04-26T03:49:01.904Z,0.00
2019-04-26T03:50:01.928Z,0.00
2019-04-26T03:51:01.917Z,0.00
2019-04-26T03:52:01.922Z,0.00
2019-04-26T03:53:01.931Z,4.00
2019-04-26T03:54:01.965Z,4.00
2019-04-26T03:55:01.952Z,4.00
2019-04-26T03:56:02.037Z,4.00
2019-04-26T03:57:01.962Z,4.00
2019-04-26T03:58:01.970Z,8.00
2019-04-26T03:59:01.980Z,4.00
2019-04-26T04:00:02.025Z,8.00
2019-04-26T04:01:01.996Z,8.00
2019-04-26T04:02:01.999Z,8.00
2019-04-26T04:03:02.001Z,12.00
2019-04-26T04:04:02.017Z,12.00
2019-04-26T04:05:02.044Z,16.00
2019-04-26T04:06:02.035Z,20.00
2019-04-26T04:07:04.565Z,20.00
2019-04-26T04:08:02.049Z,20.00
2019-04-26T04:09:02.055Z,24.00
2019-04-26T04:10:02.057Z,24.00
2019-04-26T04:11:02.200Z,28.00
2019-04-26T04:12:11.139Z,32.00
2019-04-26T04:13:02.103Z,36.00
2019-04-26T04:14:02.144Z,40.00
2019-04-26T04:15:02.093Z,40.00
2019-04-26T04:16:02.119Z,40.00
2019-04-26T04:17:02.105Z,48.00
2019-04-26T04:18:02.115Z,52.00
2019-04-26T04:19:02.121Z,52.00
2019-04-26T04:20:02.131Z,56.00
2019-04-26T04:21:02.271Z,64.00
2019-04-26T04:22:02.145Z,64.00
2019-04-26T04:23:02.155Z,60.00
2019-04-26T04:24:02.193Z,56.00
2019-04-26T04:25:02.179Z,56.00
2019-04-26T04:26:02.179Z,52.00
2019-04-26T04:27:02.183Z,56.00
2019-04-26T04:28:03.401Z,56.00
2019-04-26T04:29:02.196Z,52.00
2019-04-26T04:30:02.206Z,48.00
2019-04-26T04:31:02.230Z,48.00
2019-04-26T04:32:02.220Z,56.00
2019-04-26T04:33:02.235Z,60.00
2019-04-26T04:34:02.253Z,64.00
2019-04-26T04:35:06.242Z,72.00
2019-04-26T04:36:02.253Z,84.00
2019-04-26T04:37:02.264Z,96.00
2019-04-26T04:38:09.205Z,104.00
2019-04-26T04:39:11.211Z,120.00
2019-04-26T04:40:02.292Z,136.00
2019-04-26T04:41:02.290Z,160.00
2019-04-26T04:42:02.295Z,192.00
2019-04-26T04:43:02.501Z,224.00
2019-04-26T04:44:02.342Z,256.00
2019-04-26T04:45:02.623Z,292.00
2019-04-26T04:46:02.363Z,328.00
2019-04-26T04:47:02.338Z,380.00
2019-04-26T04:48:02.343Z,436.00
2019-04-26T04:49:02.354Z,500.00
2019-04-26T04:50:02.359Z,588.00
2019-04-26T04:51:02.376Z,716.00
2019-04-26T04:52:02.378Z,776.00
2019-04-26T04:53:02.377Z,860.00
2019-04-26T04:54:02.386Z,912.00
2019-04-26T04:55:07.440Z,956.00
2019-04-26T04:56:02.412Z,992.00
2019-04-26T04:57:02.409Z,1000.00
2019-04-26T04:58:02.414Z,996.00
2019-04-26T04:59:02.425Z,968.00
2019-04-26T05:00:02.434Z,924.00
2019-04-26T05:01:02.444Z,892.00
2019-04-26T05:02:02.439Z,860.00
2019-04-26T05:03:02.458Z,820.00
2019-04-26T05:04:02.464Z,792.00
2019-04-26T05:05:02.484Z,752.00
2019-04-26T05:06:07.528Z,696.00
2019-04-26T05:07:02.482Z,688.00
2019-04-26T05:08:06.878Z,684.00
2019-04-26T05:09:02.530Z,712.00
2019-04-26T05:10:02.509Z,672.00
2019-04-26T05:12:02.519Z,632.00
2019-04-26T05:13:02.528Z,592.00
2019-04-26T05:14:02.537Z,572.00
2019-04-26T05:15:02.544Z,580.00
2019-04-26T05:16:02.555Z,596.00
2019-04-26T05:17:02.561Z,640.00
2019-04-26T05:18:02.570Z,708.00
2019-04-26T05:19:02.567Z,768.00
2019-04-26T05:20:02.588Z,812.00
2019-04-26T05:21:02.583Z,840.00
2019-04-26T05:22:02.594Z,860.00
2019-04-26T05:23:02.615Z,872.00
2019-04-26T05:24:02.609Z,884.00
2019-04-26T05:25:02.622Z,876.00
2019-04-26T05:26:02.628Z,876.00
2019-04-26T05:27:02.629Z,908.00
2019-04-26T05:28:02.639Z,952.00
2019-04-26T05:29:02.644Z,956.00
2019-04-26T05:30:02.647Z,996.00
2019-04-26T05:31:02.663Z,1032.00
2019-04-26T05:32:02.667Z,1044.00
2019-04-26T05:33:02.680Z,1048.00
2019-04-26T05:34:02.688Z,1036.00
2019-04-26T05:35:02.686Z,1016.00
2019-04-26T05:36:02.695Z,1028.00
2019-04-26T05:37:02.713Z,980.00
2019-04-26T05:38:02.716Z,984.00
2019-04-26T05:39:02.717Z,992.00
2019-04-26T05:40:02.734Z,992.00
2019-04-26T05:41:02.732Z,988.00
2019-04-26T05:42:02.746Z,972.00
2019-04-26T05:43:02.774Z,940.00
2019-04-26T05:44:02.768Z,932.00
2019-04-26T05:45:02.798Z,964.00
2019-04-26T05:46:02.798Z,948.00
2019-04-26T05:47:02.785Z,920.00
2019-04-26T05:48:10.943Z,912.00
2019-04-26T05:49:02.804Z,892.00
2019-04-26T05:50:02.807Z,900.00
2019-04-26T05:51:02.818Z,888.00
2019-04-26T05:52:02.813Z,864.00
2019-04-26T05:53:02.826Z,840.00
2019-04-26T05:54:02.838Z,840.00
2019-04-26T05:55:02.846Z,824.00
2019-04-26T05:56:02.854Z,864.00
2019-04-26T05:57:02.854Z,948.00
2019-04-26T05:58:02.997Z,944.00
2019-04-26T05:59:03.159Z,952.00
2019-04-26T06:00:02.890Z,964.00
2019-04-26T06:01:02.891Z,916.00
2019-04-26T06:02:02.904Z,908.00
2019-04-26T06:03:02.903Z,924.00
2019-04-26T06:04:02.912Z,920.00
2019-04-26T06:05:02.919Z,960.00
2019-04-26T06:06:05.282Z,1036.00
2019-04-26T06:07:02.930Z,1004.00
2019-04-26T06:08:03.048Z,1044.00
2019-04-26T06:09:02.948Z,972.00
2019-04-26T06:10:03.144Z,944.00
2019-04-26T06:11:02.971Z,916.00
2019-04-26T06:12:02.976Z,904.00
2019-04-26T06:13:03.009Z,900.00
2019-04-26T06:14:02.980Z,928.00
2019-04-26T06:15:02.992Z,932.00
2019-04-26T06:16:03.015Z,1004.00
2019-04-26T06:17:03.000Z,1100.00
2019-04-26T06:18:03.012Z,1168.00
2019-04-26T06:19:03.015Z,1220.00
2019-04-26T06:20:03.029Z,1260.00
2019-04-26T06:21:03.044Z,1276.00
2019-04-26T06:22:03.042Z,1280.00
2019-04-26T06:23:03.177Z,1264.00
2019-04-26T06:24:03.057Z,1236.00
2019-04-26T06:25:03.137Z,1196.00
2019-04-26T06:26:04.376Z,1132.00
2019-04-26T06:27:13.722Z,1060.00
2019-04-26T06:28:03.085Z,1000.00
2019-04-26T06:29:03.331Z,972.00
2019-04-26T06:30:03.384Z,940.00
2019-04-26T06:31:03.495Z,996.00
2019-04-26T06:32:03.120Z,996.00
2019-04-26T06:33:05.986Z,972.00
2019-04-26T06:34:03.170Z,984.00
2019-04-26T06:35:03.521Z,1028.00
2019-04-26T06:36:04.322Z,1044.00
2019-04-26T06:37:04.331Z,1064.00
2019-04-26T06:38:03.992Z,1056.00
2019-04-26T06:39:04.125Z,1056.00
2019-04-26T06:40:03.180Z,1000.00
2019-04-26T06:41:03.185Z,988.00
2019-04-26T06:42:03.204Z,940.00
2019-04-26T06:43:03.224Z,892.00
2019-04-26T06:44:03.209Z,848.00
2019-04-26T06:45:03.216Z,816.00
2019-04-26T06:46:03.222Z,796.00
2019-04-26T06:47:04.027Z,796.00
2019-04-26T06:48:03.956Z,812.00
2019-04-26T06:49:03.425Z,844.00
2019-04-26T06:50:03.527Z,880.00
2019-04-26T06:51:03.256Z,912.00
2019-04-26T06:52:03.262Z,940.00
2019-04-26T06:53:03.613Z,964.00
2019-04-26T06:54:03.515Z,1036.00
2019-04-26T06:55:04.270Z,1084.00
2019-04-26T06:56:03.292Z,1180.00
2019-04-26T06:57:09.594Z,1268.00
2019-04-26T06:58:03.314Z,1308.00
2019-04-26T06:59:03.524Z,1396.00
2019-04-26T07:00:04.404Z,1476.00
2019-04-26T07:01:03.374Z,1564.00
2019-04-26T07:02:03.338Z,1672.00
2019-04-26T07:03:03.599Z,1784.00
2019-04-26T07:04:04.164Z,1856.00
2019-04-26T07:05:03.384Z,1948.00
2019-04-26T07:06:04.428Z,2004.00
2019-04-26T07:07:04.557Z,2092.00
2019-04-26T07:08:04.888Z,2296.00
2019-04-26T07:09:03.740Z,2592.00
2019-04-26T07:10:04.066Z,2656.00
2019-04-26T07:11:03.530Z,2652.00
2019-04-26T07:12:03.409Z,2596.00
2019-04-26T07:13:03.980Z,2556.00
2019-04-26T07:14:03.420Z,2624.00
2019-04-26T07:15:03.796Z,2640.00
2019-04-26T07:16:16.492Z,2560.00
2019-04-26T07:17:04.518Z,2328.00
2019-04-26T07:18:04.416Z,2104.00
2019-04-26T07:19:03.523Z,1936.00
2019-04-26T07:20:04.542Z,1792.00
2019-04-26T07:21:04.521Z,1720.00
2019-04-26T07:22:04.081Z,1716.00
2019-04-26T07:23:03.764Z,1792.00
2019-04-26T07:24:03.945Z,1868.00
2019-04-26T07:25:03.586Z,1936.00
2019-04-26T07:26:03.820Z,1896.00
2019-04-26T07:27:03.549Z,1860.00
2019-04-26T07:28:07.677Z,1772.00
2019-04-26T07:29:04.582Z,1756.00
2019-04-26T07:30:04.890Z,1812.00
2019-04-26T07:31:04.150Z,1856.00
2019-04-26T07:32:03.560Z,1828.00
2019-04-26T07:33:04.165Z,1784.00
2019-04-26T07:34:03.605Z,1788.00
2019-04-26T07:35:04.494Z,1844.00
2019-04-26T07:36:03.795Z,1864.00
2019-04-26T07:37:04.566Z,1916.00
2019-04-26T07:38:04.747Z,2028.00
2019-04-26T07:39:13.245Z,2052.00
2019-04-26T07:40:03.618Z,2064.00
2019-04-26T07:41:03.641Z,2048.00
2019-04-26T07:42:03.634Z,2024.00
2019-04-26T07:43:03.647Z,2184.00
2019-04-26T07:44:03.841Z,2344.00
2019-04-26T07:45:03.817Z,2520.00
2019-04-26T07:46:04.050Z,2664.00
2019-04-26T07:47:04.148Z,2912.00
2019-04-26T07:48:03.680Z,3120.00
2019-04-26T07:49:04.204Z,3400.00
2019-04-26T07:50:05.080Z,3408.00
2019-04-26T07:51:04.396Z,3424.00
2019-04-26T07:52:04.332Z,3388.00
2019-04-26T07:53:04.927Z,3492.00
2019-04-26T07:54:04.965Z,3568.00
2019-04-26T07:55:04.861Z,3460.00
2019-04-26T07:56:04.924Z,3616.00
2019-04-26T07:57:04.597Z,3808.00
2019-04-26T07:58:05.192Z,3804.00
2019-04-26T07:59:05.557Z,3824.00
2019-04-26T08:00:04.238Z,3888.00
2019-04-26T08:01:04.049Z,3596.00
2019-04-26T08:02:05.043Z,3252.00
2019-04-26T08:03:04.126Z,3088.00
2019-04-26T08:04:03.922Z,2980.00
2019-04-26T08:05:04.742Z,3204.00
2019-04-26T08:06:04.570Z,3268.00
2019-04-26T08:07:04.830Z,3152.00
2019-04-26T08:08:04.234Z,3092.00
2019-04-26T08:09:04.760Z,3132.00
2019-04-26T08:10:05.001Z,3088.00
2019-04-26T08:11:04.598Z,3472.00
2019-04-26T08:12:04.996Z,3724.00
2019-04-26T08:13:05.001Z,3496.00
2019-04-26T08:14:04.748Z,3544.00
2019-04-26T08:15:04.727Z,3180.00
2019-04-26T08:16:05.033Z,3268.00
2019-04-26T08:17:04.971Z,3200.00
2019-04-26T08:18:05.178Z,3176.00
2019-04-26T08:19:03.978Z,3140.00
2019-04-26T08:20:06.693Z,3408.00
2019-04-26T08:21:09.937Z,3696.00
2019-04-26T08:22:15.247Z,3828.00
2019-04-26T08:23:09.083Z,3484.00
2019-04-26T08:24:03.969Z,3044.00
2019-04-26T08:25:03.972Z,2772.00
2019-04-26T08:26:05.082Z,2628.00
2019-04-26T08:27:13.760Z,2720.00
2019-04-26T08:28:03.994Z,2752.00
2019-04-26T08:29:04.007Z,2596.00
2019-04-26T08:30:10.245Z,2696.00
2019-04-26T08:31:05.942Z,2924.00
2019-04-26T08:32:04.033Z,3380.00
2019-04-26T08:33:07.560Z,3668.00
2019-04-26T08:34:04.049Z,3424.00
2019-04-26T08:35:07.769Z,3188.00
2019-04-26T08:36:04.081Z,3028.00
2019-04-26T08:37:04.066Z,3004.00
2019-04-26T08:38:07.930Z,2948.00
2019-04-26T08:39:04.084Z,2864.00
2019-04-26T08:40:04.101Z,2696.00
2019-04-26T08:41:05.031Z,2472.00
2019-04-26T08:42:04.108Z,2676.00
2019-04-26T08:43:04.113Z,2468.00
2019-04-26T08:44:05.708Z,2552.00
2019-04-26T08:45:04.429Z,2552.00
2019-04-26T08:46:04.139Z,2676.00
2019-04-26T08:47:06.012Z,2828.00
2019-04-26T08:48:04.166Z,2920.00
2019-04-26T08:49:06.405Z,3076.00
2019-04-26T08:50:04.170Z,3104.00
2019-04-26T08:51:04.173Z,2996.00
2019-04-26T08:52:13.962Z,2712.00
2019-04-26T08:53:04.191Z,2600.00
2019-04-26T08:54:04.215Z,2952.00
2019-04-26T08:55:04.208Z,3316.00
2019-04-26T08:56:04.226Z,3312.00
2019-04-26T08:57:04.228Z,3284.00
2019-04-26T08:58:04.228Z,3340.00
2019-04-26T08:59:04.244Z,3428.00
2019-04-26T09:00:04.255Z,3696.00
2019-04-26T09:01:04.258Z,3656.00
2019-04-26T09:02:04.268Z,3784.00
2019-04-26T09:03:11.296Z,3944.00
2019-04-26T09:04:04.286Z,4128.00
2019-04-26T09:05:04.302Z,4404.00
2019-04-26T09:06:04.291Z,4964.00
2019-04-26T09:07:04.443Z,5232.00
2019-04-26T09:08:04.326Z,5744.00
2019-04-26T09:09:04.319Z,6316.00
2019-04-26T09:10:10.826Z,6568.00
2019-04-26T09:11:04.355Z,6712.00
2019-04-26T09:12:08.165Z,6872.00
2019-04-26T09:13:04.352Z,6916.00
2019-04-26T09:14:04.360Z,7100.00
2019-04-26T09:15:04.375Z,7236.00
2019-04-26T09:16:04.452Z,7588.00
2019-04-26T09:17:04.442Z,7800.00
2019-04-26T09:18:06.096Z,7980.00
2019-04-26T09:19:04.405Z,8248.00
2019-04-26T09:20:08.004Z,8084.00
2019-04-26T09:21:04.420Z,7828.00
2019-04-26T09:22:12.743Z,7508.00
2019-04-26T09:23:05.029Z,6904.00
2019-04-26T09:24:04.456Z,6624.00
2019-04-26T09:25:04.453Z,7100.00
2019-04-26T09:26:04.492Z,6488.00
2019-04-26T09:27:04.474Z,6504.00
2019-04-26T09:28:04.484Z,6340.00
2019-04-26T09:29:04.504Z,6432.00
2019-04-26T09:30:05.357Z,6688.00
2019-04-26T09:31:04.520Z,6788.00
2019-04-26T09:32:04.522Z,6688.00
2019-04-26T09:33:04.540Z,6840.00
2019-04-26T09:34:06.303Z,6240.00
2019-04-26T09:35:04.544Z,6076.00
2019-04-26T09:36:04.551Z,6000.00
2019-04-26T09:37:04.586Z,5668.00
2019-04-26T09:38:04.572Z,5244.00
2019-04-26T09:39:08.409Z,5284.00
2019-04-26T09:40:10.621Z,5676.00
2019-04-26T09:41:04.600Z,5948.00
2019-04-26T09:42:06.005Z,6120.00
2019-04-26T09:43:04.622Z,5976.00
2019-04-26T09:44:04.633Z,5852.00
2019-04-26T09:45:04.656Z,5852.00
2019-04-26T09:46:04.650Z,5652.00
2019-04-26T09:47:04.662Z,5848.00
2019-04-26T09:48:04.668Z,6284.00
2019-04-26T09:49:07.056Z,6224.00
2019-04-26T09:50:04.686Z,6428.00
2019-04-26T09:51:04.697Z,6768.00
2019-04-26T09:52:04.839Z,7100.00
2019-04-26T09:53:04.716Z,7192.00
2019-04-26T09:54:04.725Z,7300.00
2019-04-26T09:55:04.735Z,7192.00
2019-04-26T09:58:04.787Z,6844.00
2019-04-26T09:59:05.613Z,7148.00
2019-04-26T10:00:04.781Z,7544.00
2019-04-26T10:01:06.184Z,7332.00
2019-04-26T10:02:04.803Z,7856.00
2019-04-26T10:03:05.541Z,7760.00
2019-04-26T10:04:04.824Z,7476.00
2019-04-26T10:05:08.084Z,7208.00
2019-04-26T10:06:04.833Z,7140.00
2019-04-26T10:07:04.852Z,7124.00
2019-04-26T10:08:08.327Z,7100.00
2019-04-26T10:09:04.870Z,7108.00
2019-04-26T10:10:04.873Z,7184.00
2019-04-26T10:11:05.742Z,7548.00
2019-04-26T10:12:04.888Z,7992.00
2019-04-26T10:13:04.905Z,7992.00
2019-04-26T10:14:04.907Z,8104.00
2019-04-26T10:15:04.925Z,8212.00
2019-04-26T10:16:04.935Z,8204.00
2019-04-26T10:17:04.944Z,8332.00
2019-04-26T10:18:04.946Z,8740.00
2019-04-26T10:20:04.965Z,10096.00
2019-04-26T10:21:04.986Z,10828.00
2019-04-26T10:22:04.983Z,11136.00
2019-04-26T10:23:05.025Z,11392.00
2019-04-26T10:24:05.005Z,9752.00
2019-04-26T10:25:07.659Z,8868.00
2019-04-26T10:26:05.017Z,8372.00
2019-04-26T10:27:05.051Z,7960.00
2019-04-26T10:28:05.043Z,7576.00
2019-04-26T10:29:05.047Z,7556.00
2019-04-26T10:31:05.072Z,7456.00
2019-04-26T10:32:05.080Z,7560.00
2019-04-26T10:33:05.087Z,8000.00
2019-04-26T10:34:07.714Z,8156.00
2019-04-26T10:35:05.109Z,7908.00
2019-04-26T10:36:05.123Z,7752.00
2019-04-26T10:37:06.198Z,7704.00
2019-04-26T10:38:05.142Z,7388.00
2019-04-26T10:39:05.155Z,7360.00
2019-04-26T10:40:05.162Z,7464.00
2019-04-26T10:41:05.161Z,7536.00
2019-04-26T10:42:05.181Z,7616.00
2019-04-26T10:43:05.183Z,7644.00
2019-04-26T10:44:05.213Z,7728.00
2019-04-26T10:45:05.208Z,7876.00
2019-04-26T10:46:05.218Z,8348.00
2019-04-26T10:47:06.028Z,8580.00
2019-04-26T10:48:05.241Z,8328.00
2019-04-26T10:49:09.708Z,8212.00
2019-04-26T10:50:05.253Z,7820.00
2019-04-26T10:51:07.314Z,7448.00
2019-04-26T10:52:05.275Z,7108.00
2019-04-26T10:53:05.285Z,6948.00
2019-04-26T10:54:05.922Z,6576.00
2019-04-26T10:55:05.310Z,6008.00
2019-04-26T10:56:05.307Z,5732.00
2019-04-26T10:57:05.328Z,5532.00
2019-04-26T10:58:05.343Z,5620.00
2019-04-26T10:59:06.064Z,5768.00
2019-04-26T11:00:05.364Z,6000.00
2019-04-26T11:01:05.358Z,5844.00
2019-04-26T11:02:05.370Z,5764.00
2019-04-26T11:03:06.195Z,5636.00
2019-04-26T11:04:05.396Z,5504.00
2019-04-26T11:05:05.477Z,5496.00
2019-04-26T11:06:05.410Z,5252.00
2019-04-26T11:07:05.430Z,5016.00
2019-04-26T11:08:05.454Z,5100.00
2019-04-26T11:09:05.437Z,5616.00
2019-04-26T11:10:05.448Z,5660.00
2019-04-26T11:11:05.451Z,5688.00
2019-04-26T11:12:05.467Z,5648.00
2019-04-26T11:13:05.473Z,5836.00
2019-04-26T11:14:05.477Z,5876.00
2019-04-26T11:15:06.267Z,5800.00
2019-04-26T11:16:07.188Z,5700.00
2019-04-26T11:17:05.505Z,5680.00
2019-04-26T11:18:05.540Z,5608.00
2019-04-26T11:19:05.532Z,5592.00
2019-04-26T11:20:06.189Z,5728.00
2019-04-26T11:21:05.565Z,6296.00
2019-04-26T11:22:05.554Z,6820.00
2019-04-26T11:23:08.122Z,7272.00
2019-04-26T11:24:05.676Z,7288.00
2019-04-26T11:25:05.596Z,6884.00
2019-04-26T11:26:05.647Z,6432.00
2019-04-26T11:27:09.686Z,6508.00
2019-04-26T11:28:05.623Z,6256.00
2019-04-26T11:30:11.475Z,5916.00
2019-04-26T11:31:05.641Z,5596.00
2019-04-26T11:32:05.664Z,5396.00
2019-04-26T11:33:07.280Z,5304.00
2019-04-26T11:34:05.866Z,5132.00
2019-04-26T11:35:05.701Z,5336.00
2019-04-26T11:36:07.404Z,5588.00
2019-04-26T11:37:05.702Z,5744.00
2019-04-26T11:38:05.712Z,5828.00
2019-04-26T11:39:07.318Z,5900.00
2019-04-26T11:40:05.723Z,5920.00
2019-04-26T11:41:06.748Z,6104.00
2019-04-26T11:42:07.996Z,6420.00
2019-04-26T11:43:05.761Z,6804.00
2019-04-26T11:44:05.774Z,7340.00
2019-04-26T11:45:06.748Z,7996.00
2019-04-26T11:46:05.821Z,8528.00
2019-04-26T11:47:07.926Z,9192.00
2019-04-26T11:48:05.795Z,9824.00
2019-04-26T11:49:07.175Z,10336.00
2019-04-26T11:50:05.849Z,10412.00
2019-04-26T11:51:05.832Z,10764.00
2019-04-26T11:52:05.840Z,11176.00
2019-04-26T11:53:06.172Z,11176.00
2019-04-26T11:54:05.849Z,11388.00
2019-04-26T11:55:05.867Z,11712.00
2019-04-26T11:56:05.965Z,11460.00
2019-04-26T11:57:08.250Z,11804.00
2019-04-26T11:58:05.948Z,12280.00
2019-04-26T11:59:05.904Z,12912.00
2019-04-26T12:00:06.672Z,13548.00
2019-04-26T12:01:05.920Z,17600.00
2019-04-26T12:02:06.060Z,18240.00
2019-04-26T12:03:05.956Z,16672.00
2019-04-26T12:04:07.334Z,13820.00
2019-04-26T12:05:05.963Z,16576.00
2019-04-26T12:06:06.373Z,13556.00
2019-04-26T12:07:05.987Z,12636.00
2019-04-26T12:08:06.011Z,12524.00
2019-04-26T12:10:09.602Z,13272.00
2019-04-26T12:11:17.577Z,14040.00
2019-04-26T12:12:09.230Z,13256.00
2019-04-26T12:13:06.291Z,13944.00
2019-04-26T12:14:06.066Z,17344.00
2019-04-26T12:15:08.650Z,12840.00
2019-04-26T12:16:06.088Z,12180.00
2019-04-26T12:17:06.109Z,11772.00
2019-04-26T12:18:09.758Z,11220.00
2019-04-26T12:19:06.346Z,10872.00
2019-04-26T12:20:06.148Z,10872.00
2019-04-26T12:21:06.145Z,10716.00
2019-04-26T12:22:08.382Z,9040.00
2019-04-26T12:23:06.260Z,8500.00
2019-04-26T12:24:06.184Z,8676.00
2019-04-26T12:25:07.134Z,8528.00
2019-04-26T12:26:06.217Z,8624.00
2019-04-26T12:27:06.277Z,8196.00
2019-04-26T12:28:07.278Z,8436.00
2019-04-26T12:30:06.253Z,8796.00
2019-04-26T12:31:06.271Z,8468.00
2019-04-26T12:32:06.273Z,8168.00
2019-04-26T12:33:06.275Z,7988.00
2019-04-26T12:34:06.306Z,7528.00
2019-04-26T12:35:06.308Z,7332.00
2019-04-26T12:36:09.498Z,7220.00
2019-04-26T12:37:06.324Z,7156.00
2019-04-26T12:38:06.352Z,6964.00
2019-04-26T12:39:06.358Z,6692.00
2019-04-26T12:40:07.228Z,6640.00
2019-04-26T12:41:06.375Z,6772.00